Time;durP1;ratioP1;P1;durP2;ratioP2;P2;SDS_P1;SDS_P2;PMS_P1;PMS_P2;Temp;Humidity;BMP_temperature;BMP_pressure;BME280_temperature;BME280_humidity;BME280_pressure;Samples;Min_cycle;Max_cycle;Signal;HPM_P1;HPM_P2
2023/12/14 00:00:53;;;;;;;7.43;6.67;;;5.90;99.90;;;;;;5049284;28;20236;-68
2023/12/14 00:03:20;;;;;;;9.23;6.93;;;5.90;99.90;;;;;;5049094;28;20342;-68
2023/12/14 00:05:48;;;;;;;7.90;6.77;;;5.90;99.90;;;;;;5048683;28;20757;-68
2023/12/14 00:08:15;;;;;;;10.10;6.80;;;5.90;99.90;;;;;;5048761;28;20294;-68
2023/12/14 00:10:42;;;;;;;8.00;7.17;;;5.90;99.90;;;;;;5048224;28;20211;-70
2023/12/14 00:13:11;;;;;;;7.53;6.77;;;5.90;99.90;;;;;;5043684;28;20296;-68
2023/12/14 00:15:38;;;;;;;8.20;7.40;;;5.90;99.90;;;;;;5041959;28;20201;-68
2023/12/14 00:18:06;;;;;;;7.20;6.50;;;5.90;99.90;;;;;;5038578;28;20228;-68
2023/12/14 00:20:33;;;;;;;7.97;7.07;;;5.90;99.90;;;;;;5039265;28;20209;-68
2023/12/14 00:23:01;;;;;;;7.20;6.50;;;5.90;99.90;;;;;;5045952;28;20331;-68
2023/12/14 00:25:28;;;;;;;7.80;6.93;;;5.80;99.90;;;;;;5048992;28;20207;-68
2023/12/14 00:27:55;;;;;;;8.13;7.00;;;5.80;99.90;;;;;;5048373;28;20303;-68
2023/12/14 00:30:22;;;;;;;7.27;6.57;;;5.80;99.90;;;;;;5048528;28;20231;-68
2023/12/14 00:32:48;;;;;;;8.10;7.23;;;5.80;99.90;;;;;;5047897;28;20235;-68
2023/12/14 00:35:15;;;;;;;7.67;6.90;;;5.80;99.90;;;;;;5029551;28;20204;-68
2023/12/14 00:37:42;;;;;;;7.90;7.10;;;5.80;99.90;;;;;;5031939;28;20740;-68
2023/12/14 00:40:12;;;;;;;7.80;7.10;;;5.80;99.90;;;;;;5048338;28;20692;-68
2023/12/14 00:42:38;;;;;;;7.17;6.47;;;5.80;99.90;;;;;;5048028;28;20575;-68
2023/12/14 00:45:06;;;;;;;7.13;6.43;;;5.70;99.90;;;;;;5048570;28;20774;-69
2023/12/14 00:47:33;;;;;;;7.90;7.00;;;5.80;99.90;;;;;;5048294;28;20700;-68
2023/12/14 00:50:00;;;;;;;7.13;6.43;;;5.70;99.90;;;;;;5031969;28;20260;-68
2023/12/14 00:52:27;;;;;;;7.83;6.50;;;5.70;99.90;;;;;;5028594;28;20240;-68
2023/12/14 00:54:54;;;;;;;7.57;6.83;;;5.70;99.90;;;;;;5047854;28;20220;-68
2023/12/14 00:57:22;;;;;;;8.57;7.40;;;5.70;99.90;;;;;;5047765;28;20287;-68
2023/12/14 00:59:49;;;;;;;8.73;7.30;;;5.70;99.90;;;;;;5048262;28;20737;-68
2023/12/14 01:02:16;;;;;;;7.33;6.60;;;5.70;99.90;;;;;;5067015;28;20310;-68
2023/12/14 01:04:43;;;;;;;7.90;7.00;;;5.70;99.90;;;;;;5041956;28;20211;-68
2023/12/14 01:07:10;;;;;;;8.00;7.13;;;5.80;99.90;;;;;;5027751;28;20286;-68
2023/12/14 01:09:37;;;;;;;7.80;7.10;;;5.80;99.90;;;;;;5028308;28;20296;-68
2023/12/14 01:12:04;;;;;;;8.03;7.33;;;5.80;99.90;;;;;;5045656;28;20304;-68
2023/12/14 01:14:32;;;;;;;8.00;7.20;;;5.70;99.90;;;;;;5027992;28;20881;-68
2023/12/14 01:17:00;;;;;;;7.77;6.97;;;5.70;99.90;;;;;;5027964;28;20572;-68
2023/12/14 01:19:26;;;;;;;7.30;6.57;;;5.70;99.90;;;;;;5027801;28;20304;-68
2023/12/14 01:21:55;;;;;;;8.20;7.20;;;5.70;99.90;;;;;;5041668;28;20243;-68
2023/12/14 01:24:21;;;;;;;7.90;6.80;;;5.70;99.90;;;;;;5047556;28;20815;-68
2023/12/14 01:26:48;;;;;;;9.07;6.87;;;5.70;99.90;;;;;;5047066;28;20982;-68
2023/12/14 01:29:15;;;;;;;7.97;7.10;;;5.60;99.90;;;;;;5047383;28;20204;-68
2023/12/14 01:31:43;;;;;;;7.07;6.47;;;5.70;99.90;;;;;;5047130;28;20204;-68
2023/12/14 01:34:12;;;;;;;8.40;6.93;;;5.60;99.90;;;;;;5046937;28;20738;-68
2023/12/14 01:36:39;;;;;;;9.20;7.37;;;5.60;99.90;;;;;;5035843;28;20251;-68
2023/12/14 01:39:06;;;;;;;7.13;6.50;;;5.60;99.90;;;;;;5027753;28;20646;-68
2023/12/14 01:41:33;;;;;;;7.07;6.37;;;5.60;99.90;;;;;;5041544;28;20258;-68
2023/12/14 01:44:00;;;;;;;6.77;5.60;;;5.60;99.90;;;;;;5047160;28;20232;-68
2023/12/14 01:46:27;;;;;;;6.07;5.57;;;5.60;99.90;;;;;;5046861;28;20302;-68
2023/12/14 01:48:55;;;;;;;6.47;5.70;;;5.50;99.90;;;;;;5046730;28;20300;-68
2023/12/14 01:51:22;;;;;;;6.77;5.27;;;5.60;99.90;;;;;;5046949;28;20204;-68
2023/12/14 01:53:49;;;;;;;5.87;5.37;;;5.60;99.90;;;;;;5029153;28;20225;-68
2023/12/14 01:56:16;;;;;;;6.00;5.40;;;5.60;99.90;;;;;;5027870;28;20205;-67
2023/12/14 01:58:42;;;;;;;5.33;4.80;;;5.50;99.90;;;;;;5067107;28;20307;-67
2023/12/14 02:01:18;;;;;;;5.90;5.40;;;5.50;99.90;;;;;;5066945;28;20226;-67
2023/12/14 02:03:46;;;;;;;5.83;5.33;;;5.50;99.90;;;;;;5066734;28;20314;-67
2023/12/14 02:06:14;;;;;;;6.00;5.40;;;5.50;99.90;;;;;;5059357;28;20836;-68
2023/12/14 02:08:41;;;;;;;5.47;4.97;;;5.50;99.90;;;;;;5046747;28;20291;-67
2023/12/14 02:11:08;;;;;;;5.60;5.10;;;5.40;99.90;;;;;;5046486;28;20679;-67
2023/12/14 02:13:35;;;;;;;5.87;5.37;;;5.40;99.90;;;;;;5047227;28;20201;-67
2023/12/14 02:16:02;;;;;;;6.23;5.63;;;5.40;99.90;;;;;;5046746;28;20208;-67
2023/12/14 02:18:29;;;;;;;5.57;5.07;;;5.40;99.90;;;;;;5046681;28;20299;-67
2023/12/14 02:20:56;;;;;;;6.40;5.80;;;5.40;99.90;;;;;;5041727;28;20215;-67
2023/12/14 02:23:24;;;;;;;7.50;6.80;;;5.40;99.90;;;;;;5026269;28;20323;-67
2023/12/14 02:25:51;;;;;;;7.40;6.53;;;5.40;99.90;;;;;;5026730;28;20292;-67
2023/12/14 02:28:18;;;;;;;6.40;5.90;;;5.40;99.90;;;;;;5026557;28;20683;-67
2023/12/14 02:30:45;;;;;;;8.07;6.07;;;5.30;99.90;;;;;;5034815;28;20296;-67
2023/12/14 02:33:12;;;;;;;9.43;6.63;;;5.30;99.90;;;;;;5038009;28;20300;-67
2023/12/14 02:35:38;;;;;;;7.40;6.50;;;5.30;99.90;;;;;;5026904;28;20306;-67
2023/12/14 02:38:05;;;;;;;6.93;6.33;;;5.30;99.90;;;;;;5031612;28;20196;-67
2023/12/14 02:40:34;;;;;;;7.10;6.40;;;5.30;99.90;;;;;;5046065;28;20295;-67
2023/12/14 02:43:00;;;;;;;7.43;6.60;;;5.30;99.90;;;;;;5046233;28;20314;-68
2023/12/14 02:45:27;;;;;;;7.07;6.37;;;5.30;99.90;;;;;;5046343;28;20200;-67
2023/12/14 02:47:54;;;;;;;7.27;6.47;;;5.30;99.90;;;;;;5040629;28;20211;-67
2023/12/14 02:50:21;;;;;;;7.00;6.23;;;5.20;99.90;;;;;;5026325;28;20263;-67
2023/12/14 02:52:48;;;;;;;7.97;7.17;;;5.30;99.90;;;;;;5035088;28;20242;-67
2023/12/14 02:55:15;;;;;;;8.43;7.00;;;5.20;99.90;;;;;;5046185;28;20319;-67
2023/12/14 02:57:44;;;;;;;9.97;6.90;;;5.30;99.90;;;;;;5046401;28;20727;-67
2023/12/14 03:00:12;;;;;;;8.97;7.13;;;5.20;99.90;;;;;;5046183;28;20204;-67
2023/12/14 03:02:39;;;;;;;8.13;6.70;;;5.20;99.90;;;;;;5042509;28;20612;-67
2023/12/14 03:05:07;;;;;;;8.97;6.73;;;5.30;99.90;;;;;;5026257;28;20287;-67
2023/12/14 03:07:34;;;;;;;7.77;6.83;;;5.20;99.90;;;;;;5025937;28;20247;-67
2023/12/14 03:10:01;;;;;;;8.27;7.47;;;5.20;99.90;;;;;;5027974;28;20292;-67
2023/12/14 03:12:27;;;;;;;7.77;6.83;;;5.20;99.90;;;;;;5045986;28;20204;-67
2023/12/14 03:14:56;;;;;;;7.70;6.97;;;5.20;99.90;;;;;;5046139;28;20236;-67
2023/12/14 03:17:22;;;;;;;9.77;7.53;;;5.20;99.90;;;;;;5045380;28;20240;-67
2023/12/14 03:19:49;;;;;;;8.07;7.00;;;5.20;99.90;;;;;;5027675;28;20291;-67
2023/12/14 03:22:16;;;;;;;8.13;7.30;;;5.20;99.90;;;;;;5029930;28;20287;-67
2023/12/14 03:24:43;;;;;;;7.63;6.93;;;5.20;99.90;;;;;;5029981;28;20662;-67
2023/12/14 03:27:10;;;;;;;9.50;7.37;;;5.20;99.90;;;;;;5038868;28;20311;-67
2023/12/14 03:29:37;;;;;;;7.20;6.50;;;5.20;99.90;;;;;;5049942;28;20295;-67
2023/12/14 03:32:05;;;;;;;9.57;7.47;;;5.20;99.90;;;;;;5049652;28;20220;-67
2023/12/14 03:34:32;;;;;;;7.50;6.60;;;5.20;99.90;;;;;;5048750;28;20315;-67
2023/12/14 03:36:59;;;;;;;7.47;6.83;;;5.20;99.90;;;;;;5049409;28;20327;-67
2023/12/14 03:39:26;;;;;;;7.87;7.07;;;5.20;99.90;;;;;;5049269;28;20741;-67
2023/12/14 03:41:53;;;;;;;7.73;6.80;;;5.20;99.90;;;;;;5048816;28;20208;-68
2023/12/14 03:44:20;;;;;;;7.73;6.50;;;5.20;99.90;;;;;;5049399;28;20323;-68
2023/12/14 03:46:47;;;;;;;7.90;7.10;;;5.20;99.90;;;;;;5049166;28;20254;-68
2023/12/14 03:49:15;;;;;;;7.80;6.53;;;5.30;99.90;;;;;;5043966;28;20384;-68
2023/12/14 03:51:42;;;;;;;7.93;7.03;;;5.30;99.90;;;;;;5049177;28;20302;-67
2023/12/14 03:54:09;;;;;;;7.80;7.03;;;5.30;99.90;;;;;;5049135;28;20228;-67
2023/12/14 03:56:36;;;;;;;8.70;7.00;;;5.30;99.90;;;;;;5049250;28;20267;-67
2023/12/14 03:59:03;;;;;;;7.30;6.60;;;5.30;99.90;;;;;;5048899;28;20250;-67
2023/12/14 04:01:30;;;;;;;6.73;6.13;;;5.30;99.90;;;;;;5049014;28;20804;-67
2023/12/14 04:03:56;;;;;;;7.33;6.17;;;5.20;99.90;;;;;;5048217;28;20733;-67
2023/12/14 04:06:25;;;;;;;6.10;5.60;;;5.20;99.90;;;;;;5048656;28;20238;-67
2023/12/14 04:08:51;;;;;;;6.40;5.80;;;5.20;99.90;;;;;;5049067;28;20239;-67
2023/12/14 04:11:18;;;;;;;6.50;5.90;;;5.20;99.90;;;;;;5048122;28;20307;-68
2023/12/14 04:13:45;;;;;;;6.27;5.67;;;5.20;99.90;;;;;;5043780;28;20239;-69
2023/12/14 04:16:12;;;;;;;6.20;5.60;;;5.10;99.90;;;;;;5040693;28;20222;-69
2023/12/14 04:18:40;;;;;;;10.43;5.93;;;5.10;99.90;;;;;;5037325;28;20292;-69
2023/12/14 04:21:07;;;;;;;6.30;5.67;;;5.10;99.90;;;;;;5034034;28;20284;-69
2023/12/14 04:23:35;;;;;;;7.27;6.03;;;5.10;99.90;;;;;;5045102;28;20320;-69
2023/12/14 04:26:02;;;;;;;6.57;5.97;;;5.10;99.90;;;;;;5035653;28;20201;-68
2023/12/14 04:28:29;;;;;;;6.07;5.47;;;5.10;99.90;;;;;;5037597;28;20227;-69
2023/12/14 04:30:56;;;;;;;6.67;6.00;;;5.10;99.90;;;;;;5030748;28;20232;-69
2023/12/14 04:33:23;;;;;;;5.97;5.37;;;5.20;99.90;;;;;;5046656;28;20678;-69
2023/12/14 04:35:50;;;;;;;6.53;5.90;;;5.20;99.90;;;;;;5048387;28;20295;-69
2023/12/14 04:38:17;;;;;;;6.53;6.03;;;5.20;99.90;;;;;;5048246;28;20299;-69
2023/12/14 04:40:45;;;;;;;6.80;6.20;;;5.20;99.90;;;;;;5040737;28;20216;-69
2023/12/14 04:43:12;;;;;;;6.90;6.30;;;5.20;99.90;;;;;;5047095;28;20508;-69
2023/12/14 04:45:39;;;;;;;9.40;6.53;;;5.20;99.90;;;;;;5054001;28;20570;-69
2023/12/14 04:48:06;;;;;;;6.90;6.30;;;5.10;99.90;;;;;;5068063;28;20230;-69
2023/12/14 04:50:33;;;;;;;6.73;6.00;;;5.10;99.90;;;;;;5068127;28;20247;-69
2023/12/14 04:53:00;;;;;;;7.63;6.83;;;5.10;99.90;;;;;;5050795;28;20303;-69
2023/12/14 04:55:27;;;;;;;6.93;6.10;;;5.10;99.90;;;;;;5048030;28;20409;-69
2023/12/14 04:57:55;;;;;;;7.70;6.87;;;5.10;99.90;;;;;;5045146;28;20303;-69
2023/12/14 05:00:22;;;;;;;7.63;6.93;;;5.10;99.90;;;;;;5048271;28;20295;-69
2023/12/14 05:02:49;;;;;;;6.87;6.27;;;5.10;99.90;;;;;;5048017;28;20212;-69
2023/12/14 05:05:16;;;;;;;10.80;6.50;;;5.10;99.90;;;;;;5047183;28;20271;-69
2023/12/14 05:07:43;;;;;;;7.70;6.50;;;5.10;99.90;;;;;;5047459;28;20236;-69
2023/12/14 05:10:11;;;;;;;7.70;6.90;;;5.10;99.90;;;;;;5047763;28;20236;-69
2023/12/14 05:12:38;;;;;;;10.53;6.97;;;5.10;99.90;;;;;;5039126;28;20211;-69
2023/12/14 05:15:08;;;;;;;8.30;6.67;;;5.10;99.90;;;;;;5029556;28;20674;-69
2023/12/14 05:17:36;;;;;;;8.97;6.90;;;5.10;99.90;;;;;;5047266;28;20230;-69
2023/12/14 05:20:04;;;;;;;8.07;7.23;;;5.10;99.90;;;;;;5046653;28;20663;-69
2023/12/14 05:22:31;;;;;;;7.90;7.10;;;5.10;99.90;;;;;;5047433;28;20618;-69
2023/12/14 05:24:58;;;;;;;7.83;6.90;;;5.20;99.90;;;;;;5047113;28;20234;-69
2023/12/14 05:27:24;;;;;;;8.47;6.97;;;5.20;99.90;;;;;;5033732;28;20299;-69
2023/12/14 05:29:52;;;;;;;7.57;6.87;;;5.20;99.90;;;;;;5028517;28;20745;-68
2023/12/14 05:32:20;;;;;;;8.03;6.77;;;5.20;99.90;;;;;;5028767;28;20227;-69
2023/12/14 05:34:47;;;;;;;7.40;6.70;;;5.20;99.90;;;;;;5035073;28;20243;-69
2023/12/14 05:37:14;;;;;;;7.20;6.50;;;5.20;99.90;;;;;;5047109;28;20212;-69
2023/12/14 05:39:42;;;;;;;6.67;6.07;;;5.20;99.90;;;;;;5047337;28;20403;-69
2023/12/14 05:42:09;;;;;;;6.67;6.07;;;5.20;99.90;;;;;;5037202;28;20220;-69
2023/12/14 05:44:36;;;;;;;6.80;6.10;;;5.20;99.90;;;;;;5030393;28;20231;-69
2023/12/14 05:47:04;;;;;;;6.40;5.80;;;5.20;99.90;;;;;;5032190;28;20228;-69
2023/12/14 05:49:32;;;;;;;6.70;5.93;;;5.20;99.90;;;;;;5027168;28;20212;-69
2023/12/14 05:52:00;;;;;;;6.53;5.93;;;5.20;99.90;;;;;;5026903;28;20232;-69
2023/12/14 05:54:27;;;;;;;7.13;6.33;;;5.20;99.90;;;;;;5027307;28;20311;-69
2023/12/14 05:56:54;;;;;;;6.77;6.07;;;5.20;99.90;;;;;;5027124;28;20215;-69
2023/12/14 05:59:21;;;;;;;6.37;5.87;;;5.20;99.90;;;;;;5026936;28;20295;-68
2023/12/14 06:01:48;;;;;;;7.23;6.53;;;5.20;99.90;;;;;;5026767;28;20223;-68
2023/12/14 06:04:14;;;;;;;6.97;6.37;;;5.20;99.90;;;;;;5026475;28;20319;-68
2023/12/14 06:06:43;;;;;;;6.53;5.97;;;5.20;99.90;;;;;;5026645;28;20319;-68
2023/12/14 06:09:10;;;;;;;6.50;5.90;;;5.20;99.90;;;;;;5026954;28;20215;-68
2023/12/14 06:11:37;;;;;;;6.50;5.90;;;5.20;99.90;;;;;;5041358;28;20310;-70
2023/12/14 06:14:04;;;;;;;6.20;5.63;;;5.20;99.90;;;;;;5046774;28;20229;-69
2023/12/14 06:16:31;;;;;;;7.47;5.73;;;5.20;99.90;;;;;;5046289;28;20844;-68
2023/12/14 06:18:58;;;;;;;7.37;6.07;;;5.20;99.90;;;;;;5027281;28;20299;-68
2023/12/14 06:21:28;;;;;;;6.40;5.80;;;5.20;99.90;;;;;;5026668;28;20697;-68
2023/12/14 06:23:56;;;;;;;6.53;5.93;;;5.20;99.90;;;;;;5026487;28;20232;-68
2023/12/14 06:26:23;;;;;;;6.47;5.43;;;5.20;99.90;;;;;;5026788;28;20212;-69
2023/12/14 06:28:50;;;;;;;6.30;5.80;;;5.20;99.90;;;;;;5028912;28;20208;-68
2023/12/14 06:31:18;;;;;;;6.83;6.10;;;5.20;99.90;;;;;;5046386;28;20358;-68
2023/12/14 06:33:45;;;;;;;7.37;6.67;;;5.20;99.90;;;;;;5046235;28;20303;-68
2023/12/14 06:36:12;;;;;;;7.37;6.17;;;5.20;99.90;;;;;;5046113;28;20218;-68
2023/12/14 06:38:40;;;;;;;6.20;5.60;;;5.20;99.90;;;;;;5056154;28;20268;-68
2023/12/14 06:41:08;;;;;;;5.70;5.30;;;5.20;99.90;;;;;;5055291;28;20215;-68
2023/12/14 06:43:35;;;;;;;6.40;5.70;;;5.20;99.90;;;;;;5046480;28;20212;-68
2023/12/14 06:46:02;;;;;;;6.93;5.27;;;5.20;99.90;;;;;;5026473;28;20291;-68
2023/12/14 06:48:29;;;;;;;5.97;5.50;;;5.20;99.90;;;;;;5026515;28;20308;-68
2023/12/14 06:50:56;;;;;;;5.87;5.37;;;5.20;99.90;;;;;;5026302;28;20212;-68
2023/12/14 06:53:23;;;;;;;5.43;5.03;;;5.20;99.90;;;;;;5026989;28;20311;-68
2023/12/14 06:55:50;;;;;;;5.50;5.00;;;5.20;99.90;;;;;;5030573;28;20299;-68
2023/12/14 06:58:18;;;;;;;5.57;5.07;;;5.20;99.90;;;;;;5030250;28;20215;-68
2023/12/14 07:00:45;;;;;;;5.73;5.27;;;5.20;99.90;;;;;;5031586;28;20284;-68
2023/12/14 07:03:12;;;;;;;5.63;5.13;;;5.30;99.90;;;;;;5029697;28;20679;-69
2023/12/14 07:05:40;;;;;;;5.43;5.03;;;5.30;99.90;;;;;;5030111;28;20267;-69
2023/12/14 07:08:06;;;;;;;8.60;5.70;;;5.30;99.90;;;;;;5029855;28;20331;-68
2023/12/14 07:10:33;;;;;;;5.40;5.00;;;5.30;99.90;;;;;;5036107;28;20284;-68
2023/12/14 07:13:00;;;;;;;5.63;5.20;;;5.30;99.90;;;;;;5047694;28;20318;-68
2023/12/14 07:15:28;;;;;;;5.67;5.07;;;5.30;99.90;;;;;;5045037;28;20684;-69
2023/12/14 07:17:55;;;;;;;5.50;5.10;;;5.30;99.90;;;;;;5030019;28;20295;-69
2023/12/14 07:20:22;;;;;;;6.23;5.73;;;5.20;99.90;;;;;;5041567;28;20203;-69
2023/12/14 07:22:49;;;;;;;5.63;5.13;;;5.20;99.90;;;;;;5030297;28;20681;-69
2023/12/14 07:25:16;;;;;;;5.47;4.97;;;5.20;99.90;;;;;;5029588;28;20237;-69
2023/12/14 07:27:43;;;;;;;5.83;5.30;;;5.20;99.90;;;;;;5039265;28;20341;-68
2023/12/14 07:30:11;;;;;;;5.90;5.40;;;5.20;99.90;;;;;;5049885;28;20338;-68
2023/12/14 07:32:40;;;;;;;6.97;5.07;;;5.20;99.90;;;;;;5049037;28;20243;-68
2023/12/14 07:35:08;;;;;;;5.33;4.93;;;5.20;99.90;;;;;;5060840;28;20294;-68
2023/12/14 07:37:35;;;;;;;5.50;5.10;;;5.20;99.90;;;;;;5062312;28;20243;-69
2023/12/14 07:40:03;;;;;;;6.13;5.63;;;5.20;99.90;;;;;;5049533;28;20597;-68
2023/12/14 07:42:30;;;;;;;5.83;5.33;;;5.20;99.90;;;;;;5047373;28;20291;-68
2023/12/14 07:44:57;;;;;;;6.47;5.97;;;5.20;99.90;;;;;;5029236;28;20228;-69
2023/12/14 07:47:23;;;;;;;6.53;5.93;;;5.20;99.90;;;;;;5029546;28;20299;-69
2023/12/14 07:49:52;;;;;;;6.13;5.60;;;5.20;99.90;;;;;;5029488;28;20319;-69
2023/12/14 07:52:18;;;;;;;6.73;6.03;;;5.20;99.90;;;;;;5045127;28;20674;-69
2023/12/14 07:54:45;;;;;;;6.87;6.27;;;5.20;99.90;;;;;;5049302;28;20295;-69
2023/12/14 07:57:12;;;;;;;7.43;6.83;;;5.20;99.90;;;;;;5049276;28;20300;-69
2023/12/14 07:59:39;;;;;;;6.97;6.37;;;5.10;99.90;;;;;;5048975;28;20299;-68
2023/12/14 08:02:06;;;;;;;7.40;6.80;;;5.20;99.90;;;;;;5030613;28;20291;-68
2023/12/14 08:04:33;;;;;;;7.00;6.40;;;5.20;99.90;;;;;;5028678;28;20320;-68
2023/12/14 08:07:02;;;;;;;7.83;6.90;;;5.20;99.90;;;;;;5030272;28;20257;-69
2023/12/14 08:09:29;;;;;;;8.00;7.30;;;5.20;99.90;;;;;;5045574;28;20215;-69
2023/12/14 08:11:56;;;;;;;7.53;6.73;;;5.20;99.90;;;;;;5044253;28;20294;-69
2023/12/14 08:14:23;;;;;;;8.70;7.80;;;5.20;99.90;;;;;;5038127;28;20289;-68
2023/12/14 08:16:50;;;;;;;8.30;7.50;;;5.20;99.90;;;;;;5035909;28;20292;-69
2023/12/14 08:19:16;;;;;;;8.67;7.87;;;5.20;99.90;;;;;;5047812;28;20287;-69
2023/12/14 08:21:43;;;;;;;8.23;7.37;;;5.20;99.90;;;;;;5049028;28;20200;-68
2023/12/14 08:24:12;;;;;;;9.37;8.30;;;5.20;99.90;;;;;;5047980;28;20228;-69
2023/12/14 08:26:38;;;;;;;9.23;7.37;;;5.20;99.90;;;;;;5040391;28;20239;-68
2023/12/14 08:29:05;;;;;;;8.40;7.60;;;5.20;99.90;;;;;;5033776;28;21087;-68
2023/12/14 08:31:33;;;;;;;13.27;8.83;;;5.20;99.90;;;;;;5038141;28;20204;-68
2023/12/14 08:33:59;;;;;;;11.33;8.97;;;5.20;99.90;;;;;;5035569;28;20201;-68
2023/12/14 08:36:26;;;;;;;9.40;7.87;;;5.10;99.90;;;;;;5038954;28;20296;-68
2023/12/14 08:38:54;;;;;;;10.73;8.63;;;5.10;99.90;;;;;;5038117;28;20287;-68
2023/12/14 08:41:22;;;;;;;9.37;7.80;;;5.20;99.90;;;;;;5039276;28;20220;-68
2023/12/14 08:43:49;;;;;;;10.90;8.90;;;5.20;99.90;;;;;;5032406;28;20309;-68
2023/12/14 08:46:16;;;;;;;9.30;8.33;;;5.30;99.90;;;;;;5026328;28;20587;-68
2023/12/14 08:48:43;;;;;;;9.10;8.20;;;5.30;99.90;;;;;;5026570;28;20626;-69
2023/12/14 08:51:09;;;;;;;8.80;8.00;;;5.30;99.90;;;;;;5025893;28;20292;-68
2023/12/14 08:53:37;;;;;;;9.07;8.17;;;5.30;99.90;;;;;;5029589;28;20234;-68
2023/12/14 08:56:04;;;;;;;9.87;8.30;;;5.30;99.90;;;;;;5033730;28;20204;-68
2023/12/14 08:58:32;;;;;;;10.03;8.93;;;5.30;99.90;;;;;;5033281;28;20295;-68
2023/12/14 09:00:59;;;;;;;10.13;8.43;;;5.30;99.90;;;;;;5034851;28;20315;-68
2023/12/14 09:03:27;;;;;;;9.70;8.80;;;5.30;99.90;;;;;;5037584;28;20224;-68
2023/12/14 09:05:54;;;;;;;9.87;8.40;;;5.30;99.90;;;;;;5037338;28;20232;-69
2023/12/14 09:08:21;;;;;;;9.67;8.63;;;5.30;99.90;;;;;;5034605;28;20324;-68
2023/12/14 09:10:48;;;;;;;9.13;8.23;;;5.30;99.90;;;;;;5033711;28;20240;-68
2023/12/14 09:13:15;;;;;;;9.47;8.40;;;5.30;99.90;;;;;;5031131;28;20319;-68
2023/12/14 09:15:43;;;;;;;11.23;8.97;;;5.30;99.90;;;;;;5028774;28;20837;-68
2023/12/14 09:18:10;;;;;;;9.13;8.17;;;5.30;99.90;;;;;;5024813;28;20207;-68
2023/12/14 09:20:40;;;;;;;10.77;8.10;;;5.30;99.90;;;;;;5040798;28;20215;-68
2023/12/14 09:23:07;;;;;;;10.10;8.73;;;5.30;99.90;;;;;;5040439;28;20200;-68
2023/12/14 09:25:34;;;;;;;9.13;8.23;;;5.30;99.90;;;;;;5025642;28;20228;-68
2023/12/14 09:28:01;;;;;;;9.83;8.83;;;5.30;99.90;;;;;;5040865;28;20283;-69
2023/12/14 09:30:27;;;;;;;10.73;9.47;;;5.30;99.90;;;;;;5045359;28;20315;-68
2023/12/14 09:32:56;;;;;;;9.47;8.43;;;5.30;99.90;;;;;;5036906;28;20262;-68
2023/12/14 09:35:23;;;;;;;10.30;8.60;;;5.40;99.90;;;;;;5025542;28;20263;-68
2023/12/14 09:37:50;;;;;;;9.87;8.90;;;5.40;99.90;;;;;;5025712;28;20300;-68
2023/12/14 09:40:18;;;;;;;13.50;9.87;;;5.40;99.90;;;;;;5029499;28;20211;-68
2023/12/14 09:42:46;;;;;;;11.37;8.70;;;5.40;99.90;;;;;;5045543;28;20200;-68
2023/12/14 09:45:14;;;;;;;10.80;9.50;;;5.40;99.90;;;;;;5042926;28;20263;-68
2023/12/14 09:47:42;;;;;;;10.23;9.17;;;5.40;99.90;;;;;;5035825;28;20838;-68
2023/12/14 09:50:11;;;;;;;11.50;9.53;;;5.40;99.90;;;;;;5039251;28;20673;-68
2023/12/14 09:52:37;;;;;;;11.40;9.93;;;5.40;99.90;;;;;;5044726;28;20314;-68
2023/12/14 09:55:05;;;;;;;11.00;9.80;;;5.40;99.90;;;;;;5043693;28;20208;-68
2023/12/14 09:57:32;;;;;;;10.17;9.13;;;5.30;99.90;;;;;;5040619;28;20318;-68
2023/12/14 09:59:59;;;;;;;10.27;9.23;;;5.40;99.90;;;;;;5036868;28;20284;-68
2023/12/14 10:02:27;;;;;;;11.40;9.93;;;5.40;99.90;;;;;;5036229;28;20204;-69
2023/12/14 10:04:54;;;;;;;11.93;9.40;;;5.40;99.90;;;;;;5036524;28;20875;-69
2023/12/14 10:07:23;;;;;;;11.33;10.17;;;5.40;99.90;;;;;;5036915;28;20328;-72
2023/12/14 10:09:52;;;;;;;11.27;10.07;;;5.40;99.90;;;;;;5036379;28;20211;-68
2023/12/14 10:12:19;;;;;;;10.90;9.80;;;5.40;99.90;;;;;;5038648;28;20197;-69
2023/12/14 10:14:46;;;;;;;12.57;10.83;;;5.40;99.90;;;;;;5045190;28;20266;-68
2023/12/14 10:17:19;;;;;;;10.23;9.27;;;5.40;99.90;;;;;;5045396;28;21037;-68
2023/12/14 10:19:46;;;;;;;11.00;9.03;;;5.40;99.90;;;;;;5042199;28;20303;-68
2023/12/14 10:22:17;;;;;;;10.47;9.20;;;5.40;99.90;;;;;;5036572;28;20243;-68
2023/12/14 10:24:46;;;;;;;11.07;9.80;;;5.40;99.90;;;;;;5038260;28;20550;-68
2023/12/14 10:27:14;;;;;;;10.40;9.40;;;5.40;99.90;;;;;;5034556;28;20299;-68
2023/12/14 10:29:41;;;;;;;11.57;9.60;;;5.40;99.90;;;;;;5031097;28;20199;-68
2023/12/14 10:32:11;;;;;;;10.60;9.50;;;5.40;99.90;;;;;;5039650;28;20192;-68
2023/12/14 10:34:38;;;;;;;10.93;9.73;;;5.40;99.90;;;;;;5032765;28;20253;-68
2023/12/14 10:37:07;;;;;;;10.90;9.80;;;5.40;99.90;;;;;;5046190;28;20302;-68
2023/12/14 10:39:35;;;;;;;11.33;10.13;;;5.40;99.90;;;;;;5025913;28;20312;-68
2023/12/14 10:42:04;;;;;;;11.43;10.00;;;5.40;99.90;;;;;;5043181;28;20988;-68
2023/12/14 10:44:37;;;;;;;10.80;9.70;;;5.40;99.90;;;;;;5045644;28;20204;-68
2023/12/14 10:47:05;;;;;;;11.80;10.43;;;5.40;99.90;;;;;;5046114;28;20238;-68
2023/12/14 10:49:34;;;;;;;15.03;10.13;;;5.40;99.90;;;;;;5046251;28;20210;-68
2023/12/14 10:52:03;;;;;;;10.67;9.40;;;5.40;99.90;;;;;;5046124;28;21001;-68
2023/12/14 10:54:33;;;;;;;11.37;9.37;;;5.40;99.90;;;;;;5044903;28;20295;-68
2023/12/14 10:57:00;;;;;;;10.33;9.37;;;5.40;99.90;;;;;;5045204;28;20246;-68
2023/12/14 10:59:28;;;;;;;14.13;9.50;;;5.40;99.90;;;;;;5046481;28;20211;-68
2023/12/14 11:01:57;;;;;;;10.53;9.20;;;5.40;99.90;;;;;;5046424;28;20216;-68
2023/12/14 11:04:24;;;;;;;10.00;9.00;;;5.40;99.90;;;;;;5041032;28;20582;-68
2023/12/14 11:06:54;;;;;;;11.90;9.20;;;5.40;99.90;;;;;;5026059;28;20336;-68
2023/12/14 11:09:24;;;;;;;11.07;9.63;;;5.40;99.90;;;;;;5026254;28;20280;-68
2023/12/14 11:11:59;;;;;;;10.53;9.53;;;5.40;99.90;;;;;;5032198;28;20214;-68
2023/12/14 11:14:28;;;;;;;11.00;9.27;;;5.40;99.90;;;;;;5045975;28;20694;-68
2023/12/14 11:16:57;;;;;;;10.23;9.23;;;5.40;99.90;;;;;;5031149;28;20212;-68
2023/12/14 11:19:31;;;;;;;10.70;9.60;;;5.40;99.90;;;;;;5026161;28;20236;-68
2023/12/14 11:22:15;;;;;;;9.60;8.60;;;5.40;99.90;;;;;;5027584;28;20248;-68
2023/12/14 11:24:53;;;;;;;9.70;8.70;;;5.40;99.90;;;;;;5046415;28;20672;-68
2023/12/14 11:27:26;;;;;;;11.53;8.63;;;5.40;99.90;;;;;;5045778;28;20263;-68
2023/12/14 11:29:55;;;;;;;8.97;8.07;;;5.30;99.90;;;;;;5046031;28;20719;-68
2023/12/14 11:32:22;;;;;;;9.70;8.70;;;5.30;99.90;;;;;;5046080;28;20287;-68
2023/12/14 11:34:49;;;;;;;9.23;8.33;;;5.30;99.90;;;;;;5045707;28;20283;-68
2023/12/14 11:37:16;;;;;;;10.13;9.10;;;5.30;99.90;;;;;;5033099;28;20212;-68
2023/12/14 11:39:44;;;;;;;10.27;9.13;;;5.30;99.90;;;;;;5026179;28;21140;-68
2023/12/14 11:42:11;;;;;;;10.10;8.90;;;5.30;99.90;;;;;;5048425;28;20200;-68
2023/12/14 11:44:38;;;;;;;10.67;9.53;;;5.30;99.90;;;;;;5049088;28;20207;-68
2023/12/14 11:47:06;;;;;;;10.67;9.57;;;5.30;99.90;;;;;;5049404;28;20335;-68
2023/12/14 11:49:33;;;;;;;9.83;8.83;;;5.40;99.90;;;;;;5041789;28;20246;-68
2023/12/14 11:52:05;;;;;;;10.20;9.20;;;5.40;99.90;;;;;;5036822;28;20207;-68
2023/12/14 11:54:32;;;;;;;9.73;8.77;;;5.40;99.90;;;;;;5038650;28;20212;-68
2023/12/14 11:57:03;;;;;;;11.50;9.20;;;5.40;99.90;;;;;;5035927;28;20219;-68
2023/12/14 11:59:32;;;;;;;10.17;9.00;;;5.40;99.90;;;;;;5035172;28;20224;-68
2023/12/14 12:02:00;;;;;;;10.07;8.63;;;5.40;99.90;;;;;;5038398;28;20201;-68
2023/12/14 12:04:29;;;;;;;9.13;8.10;;;5.40;99.90;;;;;;5038652;28;20635;-68
2023/12/14 12:07:03;;;;;;;9.57;8.53;;;5.40;99.90;;;;;;5036735;28;20331;-68
2023/12/14 12:09:35;;;;;;;8.83;8.03;;;5.40;99.90;;;;;;5039865;28;20672;-68
2023/12/14 12:12:03;;;;;;;11.07;7.93;;;5.40;99.90;;;;;;5039225;28;20212;-68
2023/12/14 12:14:29;;;;;;;8.90;8.10;;;5.40;99.90;;;;;;5034495;28;20193;-68
2023/12/14 12:16:56;;;;;;;11.23;8.43;;;5.40;99.90;;;;;;5046449;28;20283;-68
2023/12/14 12:19:23;;;;;;;9.97;8.53;;;5.40;99.90;;;;;;5042017;28;20622;-68
2023/12/14 12:21:52;;;;;;;9.07;8.17;;;5.50;99.90;;;;;;5035066;28;20670;-68
2023/12/14 12:24:19;;;;;;;10.73;9.20;;;5.50;99.90;;;;;;5035286;28;20297;-68
2023/12/14 12:26:45;;;;;;;9.50;8.60;;;5.40;99.90;;;;;;5039452;28;20307;-68
2023/12/14 12:29:12;;;;;;;9.80;8.80;;;5.50;99.90;;;;;;5038083;28;20288;-68
2023/12/14 12:31:40;;;;;;;9.47;8.50;;;5.40;99.90;;;;;;5036577;28;20715;-68
2023/12/14 12:34:07;;;;;;;9.47;8.47;;;5.40;99.90;;;;;;5039279;28;20200;-68
2023/12/14 12:36:34;;;;;;;9.07;8.17;;;5.50;99.90;;;;;;5038534;28;20200;-68
2023/12/14 12:39:03;;;;;;;9.97;8.97;;;5.50;99.90;;;;;;5036058;28;20205;-68
2023/12/14 12:41:30;;;;;;;9.67;8.77;;;5.50;99.90;;;;;;5041637;28;20273;-68
2023/12/14 12:43:57;;;;;;;9.67;8.67;;;5.40;99.90;;;;;;5037567;28;20288;-68
2023/12/14 12:46:24;;;;;;;8.83;7.93;;;5.50;99.90;;;;;;5037491;28;21016;-68
2023/12/14 12:48:51;;;;;;;9.20;8.30;;;5.50;99.90;;;;;;5037799;28;20235;-68
2023/12/14 12:51:18;;;;;;;9.13;8.23;;;5.50;99.90;;;;;;5033386;28;20554;-68
2023/12/14 12:53:45;;;;;;;8.77;7.50;;;5.50;99.90;;;;;;5038710;28;20629;-68
2023/12/14 12:56:13;;;;;;;8.70;7.90;;;5.40;99.90;;;;;;5035604;28;20640;-68